Pagrindinis puslapis
METAR-TAF:

METAR-TAF

Oro uostai :

Uherske Hradištė, Čekija

platuma: 49-01-46N, ilguma: 017-26-23E, Aukštis: 177 m

Dabartinis oras

Ataskaita buvo paskelbta 11 valandos ir 55 minutes, ne 16:00 UTC
Vėjas 4 kt iš Pietų
Temperatūra 22°C
Drėgmė 46%
Slėgis 1010 hPa
Matomumas 10 km arba daugiau
Mažai debesys ne aukštis 4800 ft, aukštai iškilę kamuoliniai debesys.

METAR: LKKU 191600Z 19004KT 9999 FEW048TCU 22/10 Q1010

Laikas: 05:55 (03:55 UTC)


TAF: trūkstamas

Orai ataskaitas ir orų prognozės (METAR, TAF).

turimą stotys yra geltonos ir raudonos taškus žemėlapyje.

Perkelti pele per norėdami pamatyti stoties vardą.

Tada spustelėkite, norėdami matyti oro stebėjimo ir prognozės.

Norėdami pakeisti žemėlapį: spustelėkite ant žalios mygtukų su juodo kryžiaus žemyn,; žalią mygtuką su brūkšneliu, jei norite nutolinti; arba žalių rodyklių gretimoms žemėlapius.


METAR-TAF: